createdAt,value
2017-10-26T00:00:05.103Z,1013.15
2017-10-26T00:00:45.695Z,1013.07
2017-10-26T00:01:26.217Z,1013.06
2017-10-26T00:02:06.783Z,1013.06
2017-10-26T00:02:47.341Z,1013.11
2017-10-26T00:03:27.851Z,1013.07
2017-10-26T00:04:08.401Z,1013.12
2017-10-26T00:04:48.983Z,1013.15
2017-10-26T00:05:29.512Z,1013.13
2017-10-26T00:06:10.131Z,1013.12
2017-10-26T00:06:50.620Z,1013.11
2017-10-26T00:07:31.236Z,1013.13
2017-10-26T00:08:11.780Z,1013.13
2017-10-26T00:08:52.259Z,1013.08
2017-10-26T00:09:32.853Z,1013.07
2017-10-26T00:10:13.361Z,1013.07
2017-10-26T00:10:53.920Z,1013.06
2017-10-26T00:11:34.484Z,1013.05
2017-10-26T00:12:15.102Z,1012.97
2017-10-26T00:12:55.642Z,1012.98
2017-10-26T00:13:36.205Z,1012.97
2017-10-26T00:14:16.691Z,1012.95
2017-10-26T00:14:57.234Z,1012.94
2017-10-26T00:15:37.826Z,1012.89
2017-10-26T00:16:18.336Z,1012.91
2017-10-26T00:16:58.885Z,1012.91
2017-10-26T00:17:39.388Z,1012.91
2017-10-26T00:18:20.018Z,1012.92
2017-10-26T00:19:00.619Z,1012.92
2017-10-26T00:19:41.122Z,1012.9
2017-10-26T00:20:21.635Z,1012.88
2017-10-26T00:21:02.224Z,1012.9
2017-10-26T00:21:42.758Z,1012.89
2017-10-26T00:22:23.271Z,1012.89
2017-10-26T00:23:03.839Z,1012.9
2017-10-26T00:23:44.385Z,1012.86
2017-10-26T00:24:24.968Z,1012.87
2017-10-26T00:25:05.481Z,1012.88
2017-10-26T00:25:45.958Z,1012.86
2017-10-26T00:26:26.517Z,1012.89
2017-10-26T00:27:07.083Z,1012.85
2017-10-26T00:27:47.634Z,1012.86
2017-10-26T00:28:28.157Z,1012.84
2017-10-26T00:29:08.687Z,1012.87
2017-10-26T00:29:49.256Z,1012.87
2017-10-26T00:30:29.768Z,1012.87
2017-10-26T00:31:10.303Z,1012.86
2017-10-26T00:31:50.795Z,1012.83
2017-10-26T00:32:31.334Z,1012.84
2017-10-26T00:33:11.915Z,1012.87
2017-10-26T00:33:52.416Z,1012.85
2017-10-26T00:34:32.974Z,1012.88
2017-10-26T00:35:13.603Z,1012.81
2017-10-26T00:35:54.072Z,1012.85
2017-10-26T00:36:34.684Z,1012.83
2017-10-26T00:37:15.214Z,1012.85
2017-10-26T00:37:55.925Z,1012.82
2017-10-26T00:38:36.458Z,1012.85
2017-10-26T00:39:16.984Z,1012.85
2017-10-26T00:39:57.518Z,1012.87
2017-10-26T00:40:38.100Z,1012.82
2017-10-26T00:41:18.675Z,1012.88
2017-10-26T00:41:59.188Z,1012.84
2017-10-26T00:42:39.685Z,1012.82
2017-10-26T00:43:20.236Z,1012.82
2017-10-26T00:44:00.790Z,1012.84
2017-10-26T00:44:41.290Z,1012.81
2017-10-26T00:45:21.869Z,1012.85
2017-10-26T00:46:02.400Z,1012.84
2017-10-26T00:46:42.930Z,1012.82
2017-10-26T00:47:23.511Z,1012.88
2017-10-26T00:48:04.025Z,1012.87
2017-10-26T00:48:44.576Z,1012.85
2017-10-26T00:49:25.127Z,1012.85
2017-10-26T00:50:05.650Z,1012.81
2017-10-26T00:50:46.377Z,1012.84
2017-10-26T00:51:26.845Z,1012.84
2017-10-26T00:52:07.393Z,1012.9
2017-10-26T00:52:47.938Z,1012.88
2017-10-26T00:53:28.516Z,1012.88
2017-10-26T00:54:09.053Z,1012.89
2017-10-26T00:54:49.622Z,1012.88
2017-10-26T00:55:30.112Z,1012.88
2017-10-26T00:56:10.703Z,1012.85
2017-10-26T00:56:51.265Z,1012.93
2017-10-26T00:57:31.806Z,1012.88
2017-10-26T00:58:12.389Z,1012.87
2017-10-26T00:58:52.896Z,1012.89
2017-10-26T00:59:33.454Z,1012.91
2017-10-26T01:00:13.988Z,1012.95
2017-10-26T01:00:54.473Z,1012.9
2017-10-26T01:01:35.006Z,1012.91
2017-10-26T01:02:15.560Z,1012.88
2017-10-26T01:02:56.103Z,1012.88
2017-10-26T01:03:36.642Z,1012.86
2017-10-26T01:04:17.186Z,1012.83
2017-10-26T01:04:57.728Z,1012.85
2017-10-26T01:05:38.248Z,1012.81
2017-10-26T01:06:18.778Z,1012.82
2017-10-26T01:06:59.373Z,1012.84
2017-10-26T01:07:39.884Z,1012.77
2017-10-26T01:08:20.451Z,1012.73
2017-10-26T01:09:01.014Z,1012.71
2017-10-26T01:09:41.576Z,1012.75
2017-10-26T01:10:22.106Z,1012.72
2017-10-26T01:11:02.649Z,1012.75
2017-10-26T01:11:43.151Z,1012.82
2017-10-26T01:12:23.653Z,1012.79
2017-10-26T01:13:04.259Z,1012.84
2017-10-26T01:13:44.816Z,1012.81
2017-10-26T01:14:25.330Z,1012.82
2017-10-26T01:15:05.856Z,1012.84
2017-10-26T01:15:46.434Z,1012.85
2017-10-26T01:16:27.035Z,1012.84
2017-10-26T01:17:07.552Z,1012.82
2017-10-26T01:17:48.128Z,1012.82
2017-10-26T01:18:28.638Z,1012.82
2017-10-26T01:19:09.204Z,1012.83
2017-10-26T01:19:49.744Z,1012.81
2017-10-26T01:20:30.280Z,1012.78
2017-10-26T01:21:10.806Z,1012.8
2017-10-26T01:21:51.387Z,1012.77
2017-10-26T01:22:31.991Z,1012.78
2017-10-26T01:23:12.476Z,1012.77
2017-10-26T01:23:53.010Z,1012.78
2017-10-26T01:24:33.589Z,1012.77
2017-10-26T01:25:14.193Z,1012.8
2017-10-26T01:25:54.712Z,1012.74
2017-10-26T01:26:35.252Z,1012.75
2017-10-26T01:27:15.843Z,1012.75
2017-10-26T01:27:56.380Z,1012.75
2017-10-26T01:28:36.914Z,1012.75
2017-10-26T01:29:17.554Z,1012.75
2017-10-26T01:29:57.975Z,1012.76
2017-10-26T01:30:38.577Z,1012.74
2017-10-26T01:31:19.069Z,1012.79
2017-10-26T01:31:59.720Z,1012.78
2017-10-26T01:32:40.380Z,1012.76
2017-10-26T01:33:20.964Z,1012.77
2017-10-26T01:34:01.558Z,1012.78
2017-10-26T01:34:42.083Z,1012.78
2017-10-26T01:35:22.612Z,1012.82
2017-10-26T01:36:03.152Z,1012.77
2017-10-26T01:36:43.725Z,1012.84
2017-10-26T01:37:24.243Z,1012.85
2017-10-26T01:38:04.803Z,1012.86
2017-10-26T01:38:45.353Z,1012.82
2017-10-26T01:39:25.860Z,1012.8
2017-10-26T01:40:06.405Z,1012.85
2017-10-26T01:40:46.975Z,1012.88
2017-10-26T01:41:27.474Z,1012.9
2017-10-26T01:42:08.080Z,1012.86
2017-10-26T01:42:48.610Z,1012.89
2017-10-26T01:43:29.167Z,1012.86
2017-10-26T01:44:09.662Z,1012.88
2017-10-26T01:44:50.207Z,1012.9
2017-10-26T01:45:30.770Z,1012.91
2017-10-26T01:46:11.310Z,1012.85
2017-10-26T01:46:51.850Z,1012.84
2017-10-26T01:47:32.411Z,1012.91
2017-10-26T01:48:12.941Z,1012.89
2017-10-26T01:48:53.560Z,1012.88
2017-10-26T01:49:34.082Z,1012.91
2017-10-26T01:50:14.644Z,1012.9
2017-10-26T01:50:55.144Z,1012.95
2017-10-26T01:51:35.670Z,1012.96
2017-10-26T01:52:16.212Z,1012.95
2017-10-26T01:52:56.699Z,1012.95
2017-10-26T01:53:37.295Z,1013.02
2017-10-26T01:54:17.822Z,1012.99
2017-10-26T01:54:58.384Z,1013.04
2017-10-26T01:55:38.890Z,1013.03
2017-10-26T01:56:19.432Z,1013.05
2017-10-26T01:56:59.951Z,1013.08
2017-10-26T01:57:40.477Z,1013.07
2017-10-26T01:58:21.011Z,1013.08
2017-10-26T01:59:01.585Z,1013.08
2017-10-26T01:59:42.105Z,1013.07
2017-10-26T02:00:22.711Z,1013.08
2017-10-26T02:01:03.201Z,1013.08
2017-10-26T02:01:43.835Z,1013.09
2017-10-26T02:02:24.337Z,1013.02
2017-10-26T02:03:04.865Z,1013.08
2017-10-26T02:03:45.385Z,1013.07
2017-10-26T02:04:25.938Z,1013.05
2017-10-26T02:05:06.447Z,1013.01
2017-10-26T02:05:47.020Z,1013.07
2017-10-26T02:06:27.541Z,1013.09
2017-10-26T02:07:08.149Z,1013.08
2017-10-26T02:07:48.602Z,1013.09
2017-10-26T02:08:29.162Z,1013.1
2017-10-26T02:09:09.781Z,1013.07
2017-10-26T02:09:50.273Z,1013.11
2017-10-26T02:10:30.865Z,1013.08
2017-10-26T02:11:11.529Z,1013.08
2017-10-26T02:11:52.028Z,1013.09
2017-10-26T02:12:32.593Z,1013.03
2017-10-26T02:13:13.086Z,1013.11
2017-10-26T02:13:53.649Z,1013.1
2017-10-26T02:14:34.164Z,1013.08
2017-10-26T02:15:14.765Z,1013.1
2017-10-26T02:15:55.288Z,1013.09
2017-10-26T02:16:35.828Z,1013.1
2017-10-26T02:17:16.341Z,1013.12
2017-10-26T02:17:56.877Z,1013.11
2017-10-26T02:18:37.398Z,1013.12
2017-10-26T02:19:17.925Z,1013.16
2017-10-26T02:19:58.449Z,1013.15
2017-10-26T02:20:38.981Z,1013.17
2017-10-26T02:21:19.544Z,1013.12
2017-10-26T02:22:00.065Z,1013.14
2017-10-26T02:22:40.612Z,1013.14
2017-10-26T02:23:21.173Z,1013.16
2017-10-26T02:24:01.730Z,1013.15
2017-10-26T02:24:42.271Z,1013.19
2017-10-26T02:25:22.771Z,1013.15
2017-10-26T02:26:03.287Z,1013.16
2017-10-26T02:26:43.841Z,1013.17
2017-10-26T02:27:24.406Z,1013.2
2017-10-26T02:28:05.021Z,1013.2
2017-10-26T02:28:45.574Z,1013.19
2017-10-26T02:29:26.047Z,1013.22
2017-10-26T02:30:06.649Z,1013.18
2017-10-26T02:30:47.163Z,1013.2
2017-10-26T02:31:27.699Z,1013.28
2017-10-26T02:32:08.237Z,1013.2
2017-10-26T02:32:48.788Z,1013.2
2017-10-26T02:33:29.337Z,1013.14
2017-10-26T02:34:09.893Z,1013.16
2017-10-26T02:34:50.428Z,1013.12
2017-10-26T02:35:30.972Z,1013.15
2017-10-26T02:36:11.503Z,1013.19
2017-10-26T02:36:52.001Z,1013.16
2017-10-26T02:37:32.576Z,1013.15
2017-10-26T02:38:13.092Z,1013.17
2017-10-26T02:38:53.620Z,1013.2
2017-10-26T02:39:34.160Z,1013.2
2017-10-26T02:40:14.686Z,1013.25
2017-10-26T02:40:55.237Z,1013.2
2017-10-26T02:41:35.834Z,1013.23
2017-10-26T02:42:16.338Z,1013.22
2017-10-26T02:42:56.873Z,1013.2
2017-10-26T02:43:37.488Z,1013.16
2017-10-26T02:44:17.988Z,1013.18
2017-10-26T02:44:58.514Z,1013.14
2017-10-26T02:45:39.042Z,1013.13
2017-10-26T02:46:19.563Z,1013.12
2017-10-26T02:47:00.065Z,1013.12
2017-10-26T02:47:40.748Z,1013.12
2017-10-26T02:48:21.265Z,1013.14
2017-10-26T02:49:01.812Z,1013.12
2017-10-26T02:49:42.361Z,1013.1
2017-10-26T02:50:22.910Z,1013.09
2017-10-26T02:51:03.416Z,1013.1
2017-10-26T02:51:43.965Z,1013.04
2017-10-26T02:52:24.531Z,1013.08
2017-10-26T02:53:05.049Z,1013.03
2017-10-26T02:53:45.589Z,1013.03
2017-10-26T02:54:26.149Z,1013.05
2017-10-26T02:55:06.679Z,1013.01
2017-10-26T02:55:47.251Z,1013.01
2017-10-26T02:56:27.798Z,1013.01
2017-10-26T02:57:08.327Z,1013.04
2017-10-26T02:57:48.855Z,1012.97
2017-10-26T02:58:29.383Z,1012.96
2017-10-26T02:59:09.882Z,1012.96
2017-10-26T02:59:50.457Z,1012.95
2017-10-26T03:00:31.826Z,1012.92
2017-10-26T03:01:12.322Z,1012.88
2017-10-26T03:01:52.842Z,1012.89
2017-10-26T03:02:33.380Z,1012.91
2017-10-26T03:03:13.954Z,1012.88
2017-10-26T03:03:54.473Z,1012.88
2017-10-26T03:04:35.066Z,1012.88
2017-10-26T03:05:15.619Z,1012.87
2017-10-26T03:05:56.137Z,1012.85
2017-10-26T03:06:36.710Z,1012.88
2017-10-26T03:07:17.279Z,1012.84
2017-10-26T03:07:57.791Z,1012.88
2017-10-26T03:08:38.356Z,1012.85
2017-10-26T03:09:18.894Z,1012.8
2017-10-26T03:09:59.408Z,1012.82
2017-10-26T03:10:39.957Z,1012.83
2017-10-26T03:11:20.502Z,1012.84
2017-10-26T03:12:01.029Z,1012.86
2017-10-26T03:12:41.646Z,1012.86
2017-10-26T03:13:22.176Z,1012.87
2017-10-26T03:14:02.687Z,1012.88
2017-10-26T03:14:43.247Z,1012.86
2017-10-26T03:15:23.763Z,1012.84
2017-10-26T03:16:04.310Z,1012.84
2017-10-26T03:16:44.917Z,1012.86
2017-10-26T03:17:25.434Z,1012.86
2017-10-26T03:18:05.993Z,1012.86
2017-10-26T03:18:46.533Z,1012.85
2017-10-26T03:19:27.005Z,1012.85
2017-10-26T03:20:07.568Z,1012.84
2017-10-26T03:20:48.123Z,1012.81
2017-10-26T03:21:28.662Z,1012.8
2017-10-26T03:22:09.190Z,1012.79
2017-10-26T03:22:49.741Z,1012.78
2017-10-26T03:23:30.269Z,1012.81
2017-10-26T03:24:10.768Z,1012.73
2017-10-26T03:24:51.326Z,1012.73
2017-10-26T03:25:31.865Z,1012.77
2017-10-26T03:26:12.465Z,1012.73
2017-10-26T03:26:52.980Z,1012.73
2017-10-26T03:27:33.528Z,1012.73
2017-10-26T03:28:14.048Z,1012.75
2017-10-26T03:28:54.589Z,1012.77
2017-10-26T03:29:35.117Z,1012.77
2017-10-26T03:30:15.673Z,1012.79
2017-10-26T03:30:56.177Z,1012.8
2017-10-26T03:31:36.766Z,1012.8
2017-10-26T03:32:17.298Z,1012.76
2017-10-26T03:32:57.902Z,1012.76
2017-10-26T03:33:38.328Z,1012.76
2017-10-26T03:34:18.917Z,1012.77
2017-10-26T03:34:59.414Z,1012.78
2017-10-26T03:35:39.997Z,1012.79
2017-10-26T03:36:20.487Z,1012.75
2017-10-26T03:37:01.053Z,1012.81
2017-10-26T03:37:41.577Z,1012.82
2017-10-26T03:38:22.152Z,1012.83
2017-10-26T03:39:02.755Z,1012.76
2017-10-26T03:39:43.254Z,1012.77
2017-10-26T03:40:23.788Z,1012.78
2017-10-26T03:41:04.313Z,1012.8
2017-10-26T03:41:44.869Z,1012.81
2017-10-26T03:42:25.375Z,1012.79
2017-10-26T03:43:05.895Z,1012.83
2017-10-26T03:43:46.454Z,1012.81
2017-10-26T03:44:26.920Z,1012.85
2017-10-26T03:45:07.457Z,1012.85
2017-10-26T03:45:48.030Z,1012.86
2017-10-26T03:46:28.558Z,1012.82
2017-10-26T03:47:09.102Z,1012.91
2017-10-26T03:47:49.664Z,1012.9
2017-10-26T03:48:30.161Z,1012.92
2017-10-26T03:49:10.737Z,1012.85
2017-10-26T03:49:51.244Z,1012.86
2017-10-26T03:50:31.787Z,1012.82
2017-10-26T03:51:12.299Z,1012.78
2017-10-26T03:51:52.911Z,1012.78
2017-10-26T03:52:33.466Z,1012.78
2017-10-26T03:53:13.945Z,1012.73
2017-10-26T03:53:54.545Z,1012.77
2017-10-26T03:54:35.020Z,1012.76
2017-10-26T03:55:15.578Z,1012.76
2017-10-26T03:55:56.105Z,1012.78
2017-10-26T03:56:36.606Z,1012.77
2017-10-26T03:57:17.162Z,1012.8
2017-10-26T03:57:57.679Z,1012.8
2017-10-26T03:58:38.254Z,1012.78
2017-10-26T03:59:18.841Z,1012.8
2017-10-26T03:59:59.362Z,1012.78
2017-10-26T04:00:39.946Z,1012.76
2017-10-26T04:01:20.501Z,1012.76
2017-10-26T04:02:00.970Z,1012.74
2017-10-26T04:02:41.531Z,1012.76
2017-10-26T04:03:22.108Z,1012.71
2017-10-26T04:04:02.644Z,1012.69
2017-10-26T04:04:43.144Z,1012.72
2017-10-26T04:05:23.794Z,1012.71
2017-10-26T04:06:04.224Z,1012.74
2017-10-26T04:06:44.782Z,1012.69
2017-10-26T04:07:25.263Z,1012.66
2017-10-26T04:08:05.859Z,1012.6
2017-10-26T04:08:46.346Z,1012.62
2017-10-26T04:09:26.911Z,1012.58
2017-10-26T04:10:07.489Z,1012.62
2017-10-26T04:10:47.975Z,1012.64
2017-10-26T04:11:28.499Z,1012.66
2017-10-26T04:12:09.028Z,1012.68
2017-10-26T04:12:49.614Z,1012.65
2017-10-26T04:13:30.086Z,1012.68
2017-10-26T04:14:10.656Z,1012.66
2017-10-26T04:14:51.225Z,1012.73
2017-10-26T04:15:31.731Z,1012.75
2017-10-26T04:16:12.280Z,1012.85
2017-10-26T04:16:52.870Z,1012.88
2017-10-26T04:17:33.381Z,1012.83
2017-10-26T04:18:13.942Z,1012.82
2017-10-26T04:18:54.502Z,1012.79
2017-10-26T04:19:35.040Z,1012.79
2017-10-26T04:20:15.577Z,1012.85
2017-10-26T04:20:56.209Z,1012.94
2017-10-26T04:21:36.735Z,1012.92
2017-10-26T04:22:17.276Z,1012.96
2017-10-26T04:22:57.843Z,1012.94
2017-10-26T04:23:38.324Z,1012.9
2017-10-26T04:24:18.863Z,1012.9
2017-10-26T04:24:59.376Z,1012.9
2017-10-26T04:25:40.093Z,1012.88
2017-10-26T04:26:20.655Z,1012.88
2017-10-26T04:27:01.237Z,1012.85
2017-10-26T04:27:41.699Z,1012.85
2017-10-26T04:28:22.304Z,1012.81
2017-10-26T04:29:02.776Z,1012.8
2017-10-26T04:29:43.362Z,1012.81
2017-10-26T04:30:23.912Z,1012.81
2017-10-26T04:31:04.413Z,1012.81
2017-10-26T04:31:44.963Z,1012.8
2017-10-26T04:32:25.455Z,1012.8
2017-10-26T04:33:05.991Z,1012.81
2017-10-26T04:33:46.548Z,1012.76
2017-10-26T04:34:27.080Z,1012.73
2017-10-26T04:35:07.598Z,1012.75
2017-10-26T04:35:48.170Z,1012.69
2017-10-26T04:36:28.668Z,1012.7
2017-10-26T04:37:09.255Z,1012.7
2017-10-26T04:37:49.795Z,1012.69
2017-10-26T04:38:30.352Z,1012.67
2017-10-26T04:39:10.937Z,1012.66
2017-10-26T04:39:51.445Z,1012.6
2017-10-26T04:40:31.910Z,1012.62
2017-10-26T04:41:12.429Z,1012.55
2017-10-26T04:41:52.994Z,1012.61
2017-10-26T04:42:33.544Z,1012.58
2017-10-26T04:43:14.627Z,1012.59
2017-10-26T04:43:55.225Z,1012.57
2017-10-26T04:44:35.713Z,1012.6
2017-10-26T04:45:16.312Z,1012.67
2017-10-26T04:45:56.813Z,1012.63
2017-10-26T04:46:37.337Z,1012.61
2017-10-26T04:47:17.912Z,1012.63
2017-10-26T04:47:58.444Z,1012.63
2017-10-26T04:48:39.062Z,1012.64
2017-10-26T04:49:19.568Z,1012.69
2017-10-26T04:50:00.110Z,1012.63
2017-10-26T04:50:40.582Z,1012.69
2017-10-26T04:51:21.181Z,1012.58
2017-10-26T04:52:01.719Z,1012.64
2017-10-26T04:52:42.274Z,1012.61
2017-10-26T04:53:22.782Z,1012.67
2017-10-26T04:54:03.369Z,1012.66
2017-10-26T04:54:43.934Z,1012.69
2017-10-26T04:55:24.451Z,1012.72
2017-10-26T04:56:04.979Z,1012.75
2017-10-26T04:56:45.567Z,1012.71
2017-10-26T04:57:26.181Z,1012.74
2017-10-26T04:58:06.755Z,1012.74
2017-10-26T04:58:47.286Z,1012.74
2017-10-26T04:59:27.758Z,1012.76
2017-10-26T05:00:08.287Z,1012.74
2017-10-26T05:00:48.866Z,1012.72
2017-10-26T05:01:29.349Z,1012.72
2017-10-26T05:02:09.873Z,1012.68
2017-10-26T05:02:50.435Z,1012.73
2017-10-26T05:03:30.940Z,1012.69
2017-10-26T05:04:11.617Z,1012.71
2017-10-26T05:04:52.877Z,1012.72
2017-10-26T05:05:33.410Z,1012.77
2017-10-26T05:06:13.967Z,1012.74
2017-10-26T05:06:54.468Z,1012.79
2017-10-26T05:07:35.011Z,1012.82
2017-10-26T05:08:15.618Z,1012.82
2017-10-26T05:08:56.135Z,1012.81
2017-10-26T05:09:36.617Z,1012.84
2017-10-26T05:10:17.207Z,1012.85
2017-10-26T05:10:57.759Z,1012.81
2017-10-26T05:11:38.371Z,1012.79
2017-10-26T05:12:18.905Z,1012.81
2017-10-26T05:12:59.440Z,1012.76
2017-10-26T05:13:39.975Z,1012.72
2017-10-26T05:14:20.460Z,1012.74
2017-10-26T05:15:01.010Z,1012.79
2017-10-26T05:15:41.575Z,1012.68
2017-10-26T05:16:22.129Z,1012.66
2017-10-26T05:17:02.613Z,1012.67
2017-10-26T05:17:43.119Z,1012.63
2017-10-26T05:18:23.664Z,1012.65
2017-10-26T05:19:04.223Z,1012.62
2017-10-26T05:19:44.757Z,1012.6
2017-10-26T05:20:25.354Z,1012.6
2017-10-26T05:21:05.865Z,1012.61
2017-10-26T05:21:46.382Z,1012.61
2017-10-26T05:22:26.937Z,1012.61
2017-10-26T05:23:07.490Z,1012.61
2017-10-26T05:23:48.031Z,1012.66
2017-10-26T05:24:28.590Z,1012.69
2017-10-26T05:25:09.122Z,1012.66
2017-10-26T05:25:49.612Z,1012.67
2017-10-26T05:26:30.173Z,1012.69
2017-10-26T05:27:10.721Z,1012.73
2017-10-26T05:27:51.243Z,1012.68
2017-10-26T05:28:31.824Z,1012.74
2017-10-26T05:29:12.412Z,1012.78
2017-10-26T05:29:52.924Z,1012.71
2017-10-26T05:30:33.436Z,1012.78
2017-10-26T05:31:13.995Z,1012.74
2017-10-26T05:31:54.555Z,1012.79
2017-10-26T05:32:35.054Z,1012.77
2017-10-26T05:33:15.611Z,1012.75
2017-10-26T05:33:56.260Z,1012.79
2017-10-26T05:34:36.735Z,1012.74
2017-10-26T05:35:17.276Z,1012.72
2017-10-26T05:35:57.840Z,1012.74
2017-10-26T05:36:38.409Z,1012.69
2017-10-26T05:37:20.255Z,1012.68
2017-10-26T05:38:00.739Z,1012.65
2017-10-26T05:38:41.334Z,1012.65
2017-10-26T05:39:21.855Z,1012.66
2017-10-26T05:40:02.689Z,1012.61
2017-10-26T05:40:43.249Z,1012.61
2017-10-26T05:41:23.789Z,1012.58
2017-10-26T05:42:04.330Z,1012.62
2017-10-26T05:42:44.835Z,1012.64
2017-10-26T05:43:25.358Z,1012.69
2017-10-26T05:44:06.123Z,1012.69
2017-10-26T05:44:46.737Z,1012.68
2017-10-26T05:45:27.230Z,1012.71
2017-10-26T05:46:07.776Z,1012.76
2017-10-26T05:46:48.325Z,1012.68
2017-10-26T05:47:28.898Z,1012.7
2017-10-26T05:48:09.395Z,1012.64
2017-10-26T05:48:49.968Z,1012.67
2017-10-26T05:49:30.466Z,1012.63
2017-10-26T05:50:10.961Z,1012.61
2017-10-26T05:50:51.532Z,1012.63
2017-10-26T05:51:32.061Z,1012.67
2017-10-26T05:52:12.605Z,1012.68
2017-10-26T05:52:53.295Z,1012.67
2017-10-26T05:53:33.853Z,1012.68
2017-10-26T05:54:14.355Z,1012.62
2017-10-26T05:54:54.946Z,1012.62
2017-10-26T05:55:35.458Z,1012.64
2017-10-26T05:56:15.988Z,1012.61
2017-10-26T05:56:56.514Z,1012.64
2017-10-26T05:57:37.071Z,1012.6
2017-10-26T05:58:17.570Z,1012.63
2017-10-26T05:58:58.226Z,1012.62
2017-10-26T05:59:38.763Z,1012.66
2017-10-26T06:00:19.662Z,1012.65
2017-10-26T06:01:00.126Z,1012.64
2017-10-26T06:01:40.656Z,1012.63
2017-10-26T06:02:21.242Z,1012.64
2017-10-26T06:03:01.770Z,1012.65
2017-10-26T06:03:42.302Z,1012.59
2017-10-26T06:04:23.572Z,1012.62
2017-10-26T06:05:04.098Z,1012.63
2017-10-26T06:05:44.649Z,1012.62
2017-10-26T06:06:25.212Z,1012.6
2017-10-26T06:07:05.772Z,1012.58
2017-10-26T06:07:46.373Z,1012.62
2017-10-26T06:08:27.170Z,1012.57
2017-10-26T06:09:07.781Z,1012.63
2017-10-26T06:09:48.589Z,1012.65
2017-10-26T06:10:29.332Z,1012.61
2017-10-26T06:11:09.988Z,1012.62
2017-10-26T06:11:50.490Z,1012.59
2017-10-26T06:12:31.136Z,1012.61
2017-10-26T06:13:11.812Z,1012.65
2017-10-26T06:13:52.533Z,1012.68
2017-10-26T06:14:32.958Z,1012.68
2017-10-26T06:15:13.527Z,1012.74
2017-10-26T06:15:54.079Z,1012.69
2017-10-26T06:16:34.686Z,1012.72
2017-10-26T06:17:15.267Z,1012.71
2017-10-26T06:17:56.082Z,1012.69
2017-10-26T06:18:36.799Z,1012.7
2017-10-26T06:19:17.427Z,1012.71
2017-10-26T06:19:57.994Z,1012.71
2017-10-26T06:20:38.563Z,1012.74
2017-10-26T06:21:19.049Z,1012.71
2017-10-26T06:21:59.788Z,1012.75
2017-10-26T06:22:40.319Z,1012.77
2017-10-26T06:23:20.910Z,1012.71
2017-10-26T06:24:01.567Z,1012.73
2017-10-26T06:24:42.090Z,1012.73
2017-10-26T06:25:22.623Z,1012.72
2017-10-26T06:26:03.147Z,1012.71
2017-10-26T06:26:43.696Z,1012.74
2017-10-26T06:27:24.282Z,1012.71
2017-10-26T06:28:04.903Z,1012.69
2017-10-26T06:28:45.417Z,1012.73
2017-10-26T06:29:25.946Z,1012.69
2017-10-26T06:30:06.483Z,1012.73
2017-10-26T06:30:47.107Z,1012.73
2017-10-26T06:31:27.603Z,1012.76
2017-10-26T06:32:08.195Z,1012.72
2017-10-26T06:32:48.767Z,1012.71
2017-10-26T06:33:29.297Z,1012.71
2017-10-26T06:34:09.808Z,1012.72
2017-10-26T06:34:50.402Z,1012.76
2017-10-26T06:35:31.072Z,1012.72
2017-10-26T06:36:11.862Z,1012.73
2017-10-26T06:36:52.349Z,1012.7
2017-10-26T06:39:21.278Z,1012.78
2017-10-26T06:40:01.785Z,1012.73
2017-10-26T06:40:42.467Z,1012.73
2017-10-26T06:41:22.971Z,1012.77
2017-10-26T06:42:03.659Z,1012.8
2017-10-26T06:42:44.480Z,1012.76
2017-10-26T06:43:24.970Z,1012.75
2017-10-26T06:44:05.524Z,1012.76
2017-10-26T06:44:46.030Z,1012.74
2017-10-26T06:45:26.563Z,1012.74
2017-10-26T06:46:07.079Z,1012.79
2017-10-26T06:46:47.601Z,1012.77
2017-10-26T06:47:28.122Z,1012.74
2017-10-26T06:48:08.680Z,1012.74
2017-10-26T06:48:49.190Z,1012.73
2017-10-26T06:49:29.763Z,1012.75
2017-10-26T06:50:10.333Z,1012.72
2017-10-26T06:50:50.855Z,1012.69
2017-10-26T06:51:31.396Z,1012.69
2017-10-26T06:52:11.889Z,1012.67
2017-10-26T06:52:52.434Z,1012.74
2017-10-26T06:53:32.947Z,1012.8
2017-10-26T06:54:13.492Z,1012.78
2017-10-26T06:54:54.032Z,1012.74
2017-10-26T06:55:34.553Z,1012.75
2017-10-26T06:56:15.131Z,1012.77
2017-10-26T06:56:55.702Z,1012.79
2017-10-26T06:57:36.238Z,1012.83
2017-10-26T06:58:16.762Z,1012.82
2017-10-26T06:58:57.326Z,1012.82
2017-10-26T06:59:37.855Z,1012.77
2017-10-26T07:00:18.354Z,1012.78
2017-10-26T07:00:58.940Z,1012.83
2017-10-26T07:01:39.486Z,1012.79
2017-10-26T07:02:19.982Z,1012.78
2017-10-26T07:03:00.530Z,1012.8
2017-10-26T07:03:41.080Z,1012.79
2017-10-26T07:04:21.696Z,1012.84
2017-10-26T07:05:02.287Z,1012.84
2017-10-26T07:05:42.864Z,1012.83
2017-10-26T07:06:23.407Z,1012.85
2017-10-26T07:07:03.925Z,1012.83
2017-10-26T07:07:44.473Z,1012.87
2017-10-26T07:08:24.994Z,1012.89
2017-10-26T07:09:05.558Z,1012.94
2017-10-26T07:09:46.067Z,1012.9
2017-10-26T07:10:26.743Z,1012.93
2017-10-26T07:11:07.345Z,1012.88
2017-10-26T07:11:47.846Z,1012.9
2017-10-26T07:12:28.391Z,1012.88
2017-10-26T07:13:08.947Z,1012.9
2017-10-26T07:13:49.530Z,1012.93
2017-10-26T07:14:30.068Z,1012.93
2017-10-26T07:15:10.598Z,1012.99
2017-10-26T07:15:51.131Z,1012.99
2017-10-26T07:16:31.756Z,1012.93
2017-10-26T07:17:12.301Z,1012.98
2017-10-26T07:17:52.856Z,1012.93
2017-10-26T07:18:33.425Z,1012.95
2017-10-26T07:19:13.902Z,1012.97
2017-10-26T07:19:54.436Z,1013.03
2017-10-26T07:20:35.014Z,1013
2017-10-26T07:21:15.551Z,1012.99
2017-10-26T07:21:56.106Z,1012.95
2017-10-26T07:22:36.646Z,1012.99
2017-10-26T07:23:17.177Z,1012.99
2017-10-26T07:23:57.720Z,1012.98
2017-10-26T07:24:38.284Z,1012.96
2017-10-26T07:25:18.921Z,1013.02
2017-10-26T07:25:59.446Z,1013.01
2017-10-26T07:26:40.022Z,1013
2017-10-26T07:27:20.595Z,1013.02
2017-10-26T07:28:01.110Z,1013.07
2017-10-26T07:28:41.642Z,1013.03
2017-10-26T07:29:22.202Z,1013.05
2017-10-26T07:30:02.792Z,1013.04
2017-10-26T07:30:43.326Z,1013.05
2017-10-26T07:31:23.858Z,1013.05
2017-10-26T07:32:04.357Z,1013.08
2017-10-26T07:32:44.908Z,1013.09
2017-10-26T07:33:25.473Z,1013.09
2017-10-26T07:34:05.936Z,1013.12
2017-10-26T07:34:46.479Z,1013.1
2017-10-26T07:35:27.020Z,1013.12
2017-10-26T07:36:07.670Z,1013.16
2017-10-26T07:36:48.136Z,1013.13
2017-10-26T07:37:28.681Z,1013.17
2017-10-26T07:38:09.309Z,1013.2
2017-10-26T07:38:49.821Z,1013.16
2017-10-26T07:39:30.430Z,1013.15
2017-10-26T07:40:10.887Z,1013.15
2017-10-26T07:40:51.421Z,1013.11
2017-10-26T07:41:31.981Z,1013.14
2017-10-26T07:42:12.516Z,1013.12
2017-10-26T07:42:53.330Z,1013.12
2017-10-26T07:43:33.840Z,1013.13
2017-10-26T07:44:14.407Z,1013.1
2017-10-26T07:44:54.951Z,1013.09
2017-10-26T07:45:35.483Z,1013.06
2017-10-26T07:46:16.069Z,1013.11
2017-10-26T07:46:56.581Z,1013.11
2017-10-26T07:47:37.120Z,1013.08
2017-10-26T07:48:17.755Z,1013.13
2017-10-26T07:48:58.354Z,1013.06
2017-10-26T07:49:38.876Z,1013.06
2017-10-26T07:50:19.559Z,1013.06
2017-10-26T07:51:00.116Z,1013.1
2017-10-26T07:51:40.649Z,1013.13
2017-10-26T07:52:21.182Z,1013.12
2017-10-26T07:53:01.733Z,1013.08
2017-10-26T07:53:42.272Z,1013.1
2017-10-26T07:54:22.800Z,1013.06
2017-10-26T07:55:03.318Z,1013.1
2017-10-26T07:55:43.883Z,1013.14
2017-10-26T07:56:24.421Z,1013.07
2017-10-26T07:57:04.952Z,1013.1
2017-10-26T07:57:45.425Z,1013.07
2017-10-26T07:58:26.032Z,1013.13
2017-10-26T07:59:06.510Z,1013.08
2017-10-26T07:59:47.029Z,1013.09
2017-10-26T08:00:27.645Z,1013.03
2017-10-26T08:01:08.111Z,1013.06
2017-10-26T08:01:48.699Z,1013.05
2017-10-26T08:02:29.266Z,1012.98
2017-10-26T08:03:09.755Z,1012.98
2017-10-26T08:03:50.329Z,1012.99
2017-10-26T08:04:30.847Z,1013.02
2017-10-26T08:05:11.442Z,1013
2017-10-26T08:05:51.991Z,1012.97
2017-10-26T08:06:32.551Z,1012.99
2017-10-26T08:07:13.048Z,1012.98
2017-10-26T08:07:53.610Z,1013.07
2017-10-26T08:08:34.122Z,1012.98
2017-10-26T08:09:14.751Z,1013
2017-10-26T08:09:55.252Z,1013.01
2017-10-26T08:10:35.799Z,1013
2017-10-26T08:11:16.366Z,1013
2017-10-26T08:11:56.868Z,1013
2017-10-26T08:12:37.429Z,1013
2017-10-26T08:13:18.031Z,1012.97
2017-10-26T08:13:58.592Z,1012.97